createdAt,value
2018-07-21T00:02:22.265Z,98920.72
2018-07-21T00:04:49.746Z,98926.82
2018-07-21T00:07:17.218Z,98927.48
2018-07-21T00:09:44.619Z,98928.48
2018-07-21T00:12:12.069Z,98927.70
2018-07-21T00:14:39.549Z,98929.58
2018-07-21T00:17:07.626Z,98930.57
2018-07-21T00:19:35.045Z,98921.81
2018-07-21T00:22:02.510Z,98922.47
2018-07-21T00:24:29.968Z,98932.54
2018-07-21T00:26:57.470Z,98931.45
2018-07-21T00:29:24.889Z,98922.59
2018-07-21T00:31:52.354Z,98930.00
2018-07-21T00:34:19.786Z,98922.03
2018-07-21T00:36:47.261Z,98927.44
2018-07-21T00:39:14.714Z,98925.47
2018-07-21T00:41:42.165Z,98923.47
2018-07-21T00:44:09.617Z,98925.25
2018-07-21T00:46:37.089Z,98923.81
2018-07-21T00:49:04.550Z,98923.25
2018-07-21T00:51:32.001Z,98922.16
2018-07-21T00:53:59.434Z,98918.59
2018-07-21T00:56:26.970Z,98918.59
2018-07-21T00:58:54.354Z,98919.05
2018-07-21T01:01:21.835Z,98919.05
2018-07-21T01:03:49.303Z,98917.05
2018-07-21T01:06:16.722Z,98928.33
2018-07-21T01:08:44.222Z,98932.33
2018-07-21T01:11:11.703Z,98933.08
2018-07-21T01:13:39.254Z,98930.20
2018-07-21T01:16:06.825Z,98923.70
2018-07-21T01:18:34.221Z,98919.48
2018-07-21T01:21:01.704Z,98921.48
2018-07-21T01:23:29.023Z,98915.17
2018-07-21T01:25:56.506Z,98917.49
2018-07-21T01:28:23.934Z,98913.61
2018-07-21T01:30:51.421Z,98922.93
2018-07-21T01:33:18.866Z,98920.05
2018-07-21T01:35:46.334Z,98926.23
2018-07-21T01:38:13.792Z,98917.61
2018-07-21T01:40:41.235Z,98922.48
2018-07-21T01:43:09.258Z,98919.70
2018-07-21T01:45:37.281Z,98929.11
2018-07-21T01:48:05.007Z,98923.92
2018-07-21T01:50:32.493Z,98925.23
2018-07-21T01:52:59.966Z,98925.02
2018-07-21T01:55:27.426Z,98926.58
2018-07-21T01:57:54.873Z,98919.27
2018-07-21T02:00:22.362Z,98918.05
2018-07-21T02:02:49.843Z,98918.81
2018-07-21T02:05:17.255Z,98905.66
2018-07-21T02:07:44.685Z,98910.97
2018-07-21T02:10:12.167Z,98913.50
2018-07-21T02:12:39.646Z,98919.81
2018-07-21T02:15:07.099Z,98918.16
2018-07-21T02:17:34.582Z,98906.52
2018-07-21T02:20:02.395Z,98898.58
2018-07-21T02:22:30.920Z,98903.34
2018-07-21T02:24:58.346Z,98895.50
2018-07-21T02:27:25.809Z,98895.15
2018-07-21T02:29:53.174Z,98889.63
2018-07-21T02:32:20.610Z,98896.23
2018-07-21T02:34:48.074Z,98893.28
2018-07-21T02:37:15.533Z,98884.20
2018-07-21T02:39:42.991Z,98885.18
2018-07-21T02:42:10.435Z,98879.89
2018-07-21T02:44:37.894Z,98872.48
2018-07-21T02:47:05.383Z,98876.33
2018-07-21T02:49:32.818Z,98878.98
2018-07-21T02:52:00.261Z,98879.77
2018-07-21T02:54:27.725Z,98879.76
2018-07-21T02:56:55.167Z,98873.91
2018-07-21T02:59:22.631Z,98877.23
2018-07-21T03:01:50.091Z,98879.55
2018-07-21T03:04:17.568Z,98887.86
2018-07-21T03:06:44.991Z,98897.92
2018-07-21T03:09:12.476Z,98897.47
2018-07-21T03:11:39.915Z,98901.45
2018-07-21T03:14:07.474Z,98899.88
2018-07-21T03:16:34.875Z,98885.51
2018-07-21T03:19:02.702Z,98871.82
2018-07-21T03:21:30.198Z,98875.23
2018-07-21T03:23:57.659Z,98875.58
2018-07-21T03:26:25.086Z,98875.58
2018-07-21T03:28:52.640Z,98876.88
2018-07-21T03:31:19.973Z,98871.16
2018-07-21T03:33:47.439Z,98877.88
2018-07-21T03:36:14.903Z,98877.34
2018-07-21T03:38:42.357Z,98876.34
2018-07-21T03:41:09.829Z,98873.25
2018-07-21T03:43:37.286Z,98873.91
2018-07-21T03:46:05.262Z,98874.13
2018-07-21T03:48:32.613Z,98880.53
2018-07-21T03:51:00.070Z,98876.34
2018-07-21T03:53:27.527Z,98881.97
2018-07-21T03:55:54.977Z,98877.12
2018-07-21T03:58:22.419Z,98880.53
2018-07-21T04:00:49.897Z,98883.09
2018-07-21T04:03:17.374Z,98883.09
2018-07-21T04:05:44.803Z,98891.05
2018-07-21T04:08:12.279Z,98885.41
2018-07-21T04:10:39.749Z,98887.63
2018-07-21T04:13:07.171Z,98885.73
2018-07-21T04:15:34.656Z,98882.73
2018-07-21T04:18:03.128Z,98882.73
2018-07-21T04:20:31.603Z,98882.63
2018-07-21T04:22:59.075Z,98886.39
2018-07-21T04:25:26.514Z,98879.86
2018-07-21T04:27:54.015Z,98878.77
2018-07-21T04:30:21.432Z,98879.32
2018-07-21T04:32:48.882Z,98869.69
2018-07-21T04:35:16.334Z,98860.08
2018-07-21T04:37:43.815Z,98860.30
2018-07-21T04:40:11.257Z,98861.64
2018-07-21T04:42:38.722Z,98873.67
2018-07-21T04:45:06.224Z,98866.61
2018-07-21T04:47:33.643Z,98864.39
2018-07-21T04:50:01.113Z,98869.14
2018-07-21T04:52:28.519Z,98874.00
2018-07-21T04:54:56.007Z,98872.87
2018-07-21T04:57:23.456Z,98872.09
2018-07-21T04:59:50.894Z,98876.53
2018-07-21T05:02:18.441Z,98882.75
2018-07-21T05:04:45.872Z,98885.58
2018-07-21T05:07:13.282Z,98881.27
2018-07-21T05:10:43.711Z,98884.47
2018-07-21T05:13:11.063Z,98890.32
2018-07-21T05:15:38.544Z,98885.91
2018-07-21T05:18:06.007Z,98889.77
2018-07-21T05:20:33.488Z,98887.12
2018-07-21T05:23:00.885Z,98884.02
2018-07-21T05:25:28.355Z,98892.20
2018-07-21T05:27:55.818Z,98891.20
2018-07-21T05:30:23.298Z,98893.85
2018-07-21T05:32:50.723Z,98892.42
2018-07-21T05:35:18.218Z,98899.81
2018-07-21T05:37:45.642Z,98904.58
2018-07-21T05:40:13.079Z,98905.66
2018-07-21T05:42:40.579Z,98905.23
2018-07-21T05:45:08.225Z,98903.79
2018-07-21T05:47:35.674Z,98911.63
2018-07-21T05:50:03.941Z,98915.19
2018-07-21T05:52:31.410Z,98921.81
2018-07-21T05:54:58.922Z,98922.83
2018-07-21T05:57:26.351Z,98927.23
2018-07-21T05:59:53.770Z,98924.13
2018-07-21T06:02:21.262Z,98928.44
2018-07-21T06:04:48.750Z,98930.44
2018-07-21T06:07:16.157Z,98931.29
2018-07-21T06:09:43.639Z,98933.18
2018-07-21T06:12:11.045Z,98940.49
2018-07-21T06:14:38.521Z,98942.81
2018-07-21T06:17:06.066Z,98952.97
2018-07-21T06:19:33.436Z,98947.77
2018-07-21T06:22:00.898Z,98956.30
2018-07-21T06:24:28.352Z,98953.30
2018-07-21T06:26:55.824Z,98956.07
2018-07-21T06:29:23.366Z,98962.24
2018-07-21T06:31:50.708Z,98962.38
2018-07-21T06:34:18.218Z,98969.00
2018-07-21T06:36:45.638Z,98967.01
2018-07-21T06:39:13.136Z,98979.05
2018-07-21T06:41:40.537Z,98974.19
2018-07-21T06:44:08.023Z,98975.40
2018-07-21T06:46:35.485Z,98976.73
2018-07-21T06:49:03.819Z,98981.58
2018-07-21T06:51:31.214Z,98982.16
2018-07-21T06:53:58.667Z,98977.62
2018-07-21T06:56:26.150Z,98981.92
2018-07-21T06:58:53.605Z,98975.98
2018-07-21T07:01:21.029Z,98971.22
2018-07-21T07:03:48.477Z,98981.80
2018-07-21T07:06:15.954Z,98977.48
2018-07-21T07:08:43.375Z,98974.19
2018-07-21T07:11:10.870Z,98977.84
2018-07-21T07:13:38.304Z,98981.80
2018-07-21T07:16:05.799Z,98984.45
2018-07-21T07:18:33.214Z,98986.56
2018-07-21T07:21:00.758Z,98987.45
2018-07-21T07:23:28.137Z,98989.56
2018-07-21T07:25:55.599Z,98983.59
2018-07-21T07:28:23.086Z,98982.38
2018-07-21T07:30:50.545Z,98984.48
2018-07-21T07:33:17.971Z,98979.52
2018-07-21T07:35:45.433Z,98970.23
2018-07-21T07:39:37.450Z,98966.68
2018-07-21T07:42:05.022Z,98973.44
2018-07-21T07:51:30.435Z,98972.30
2018-07-21T07:53:57.863Z,98972.09
2018-07-21T07:56:25.294Z,98973.11
2018-07-21T07:58:52.742Z,98971.55
2018-07-21T08:01:20.283Z,98970.89
2018-07-21T08:03:47.673Z,98964.36
2018-07-21T08:06:15.130Z,98964.49
2018-07-21T08:08:42.585Z,98966.58
2018-07-21T08:11:10.411Z,98965.14
2018-07-21T08:13:37.906Z,98964.81
2018-07-21T08:16:05.408Z,98956.63
2018-07-21T08:18:32.810Z,98952.84
2018-07-21T08:21:00.270Z,98955.19
2018-07-21T08:23:27.783Z,98952.41
2018-07-21T08:25:55.216Z,98955.61
2018-07-21T08:28:22.670Z,98953.62
2018-07-21T08:30:50.106Z,98962.14
2018-07-21T08:33:17.602Z,98959.27
2018-07-21T08:38:30.331Z,98958.05
2018-07-21T08:40:57.758Z,98961.48
2018-07-21T08:43:25.204Z,98963.38
2018-07-21T08:45:52.665Z,98957.17
2018-07-21T08:48:20.122Z,98958.36
2018-07-21T08:50:47.600Z,98960.67
2018-07-21T08:53:15.031Z,98963.97
2018-07-21T08:55:42.535Z,98966.95
2018-07-21T08:58:09.949Z,98965.73
2018-07-21T09:00:37.411Z,98969.75
2018-07-21T09:03:04.918Z,98974.69
2018-07-21T09:05:32.333Z,98975.27
2018-07-21T09:07:59.781Z,98977.00
2018-07-21T09:10:27.229Z,98972.04
2018-07-21T09:12:54.709Z,98971.94
2018-07-21T09:15:22.165Z,98971.74
2018-07-21T09:17:49.635Z,98970.96
2018-07-21T09:20:17.089Z,98972.50
2018-07-21T09:22:44.581Z,98973.94
2018-07-21T09:25:11.975Z,98974.81
2018-07-21T09:27:39.448Z,98980.20
2018-07-21T09:30:06.883Z,98982.88
2018-07-21T09:32:34.351Z,98983.76
2018-07-21T09:35:01.834Z,98978.02
2018-07-21T09:37:29.274Z,98978.02
2018-07-21T09:39:56.746Z,98983.11
2018-07-21T09:42:24.290Z,98985.75
2018-07-21T09:44:51.729Z,98985.00
2018-07-21T09:47:19.210Z,98991.95
2018-07-21T09:49:46.649Z,98983.47
2018-07-21T09:52:14.117Z,98988.66
2018-07-21T09:54:41.598Z,98985.88
2018-07-21T09:57:09.022Z,98992.54
2018-07-21T09:59:36.494Z,98991.76
2018-07-21T10:02:03.963Z,98984.02
2018-07-21T10:04:31.390Z,98990.97
2018-07-21T10:06:58.872Z,98993.52
2018-07-21T10:09:26.289Z,98994.44
2018-07-21T10:11:53.772Z,98991.56
2018-07-21T10:14:21.223Z,98985.13
2018-07-21T10:16:48.742Z,98990.42
2018-07-21T10:19:16.147Z,98987.91
2018-07-21T10:21:43.658Z,98989.44
2018-07-21T10:24:11.063Z,98985.58
2018-07-21T10:26:38.491Z,98981.96
2018-07-21T10:29:06.116Z,98991.23
2018-07-21T10:31:33.642Z,98990.58
2018-07-21T10:34:01.095Z,98992.44
2018-07-21T10:36:28.526Z,98995.41
2018-07-21T10:38:56.007Z,98986.04
2018-07-21T10:41:23.467Z,98988.23
2018-07-21T10:43:50.890Z,98984.83
2018-07-21T10:46:18.396Z,98984.93
2018-07-21T10:48:45.724Z,98979.97
2018-07-21T10:51:13.197Z,98978.53
2018-07-21T10:53:40.625Z,98983.62
2018-07-21T10:56:08.102Z,98981.41
2018-07-21T10:58:35.575Z,98980.20
2018-07-21T11:01:03.001Z,98975.10
2018-07-21T11:03:30.450Z,98974.45
2018-07-21T11:05:57.930Z,98975.98
2018-07-21T11:08:25.406Z,98975.23
2018-07-21T11:10:52.895Z,98975.88
2018-07-21T11:13:20.310Z,98975.98
2018-07-21T11:15:47.747Z,98974.02
2018-07-21T11:18:15.230Z,98967.06
2018-07-21T11:20:42.677Z,98969.25
2018-07-21T11:23:10.129Z,98972.37
2018-07-21T11:25:37.588Z,98973.06
2018-07-21T11:28:05.050Z,98968.07
2018-07-21T11:30:32.514Z,98969.86
2018-07-21T11:32:59.954Z,98968.98
2018-07-21T11:35:27.539Z,98971.95
2018-07-21T11:37:54.861Z,98966.98
2018-07-21T11:40:22.319Z,98970.09
2018-07-21T11:42:49.846Z,98970.73
2018-07-21T11:45:17.255Z,98970.19
2018-07-21T11:47:44.738Z,98972.96
2018-07-21T11:50:12.146Z,98973.06
2018-07-21T11:52:39.651Z,98978.94
2018-07-21T11:55:07.082Z,98974.06
2018-07-21T11:57:34.526Z,98979.03
2018-07-21T12:00:01.995Z,98985.69
2018-07-21T12:02:29.457Z,98985.92
2018-07-21T12:04:56.902Z,98986.58
2018-07-21T12:07:24.345Z,98979.39
2018-07-21T12:09:51.834Z,98980.49
2018-07-21T12:12:19.262Z,98979.05
2018-07-21T12:14:46.738Z,98974.74
2018-07-21T12:17:14.166Z,98975.62
2018-07-21T12:19:41.641Z,98970.78
2018-07-21T12:22:09.099Z,98975.20
2018-07-21T12:24:36.561Z,98970.88
2018-07-21T12:27:04.014Z,98971.89
2018-07-21T12:29:31.463Z,98970.67
2018-07-21T12:31:58.939Z,98970.02
2018-07-21T12:34:26.368Z,98972.21
2018-07-21T12:36:53.829Z,98967.14
2018-07-21T12:39:21.302Z,98958.62
2018-07-21T12:41:48.741Z,98966.81
2018-07-21T12:44:16.222Z,98957.41
2018-07-21T12:46:43.677Z,98972.44
2018-07-21T12:49:12.811Z,98965.70
2018-07-21T12:51:40.222Z,98957.55
2018-07-21T12:54:07.685Z,98957.64
2018-07-21T12:56:35.134Z,98963.28
2018-07-21T12:59:02.602Z,98962.95
2018-07-21T13:01:30.052Z,98968.17
2018-07-21T13:03:57.519Z,98968.93
2018-07-21T13:06:24.982Z,98968.49
2018-07-21T13:08:52.457Z,98967.61
2018-07-21T13:11:19.912Z,98969.71
2018-07-21T13:13:47.330Z,98962.30
2018-07-21T13:16:14.777Z,98965.41
2018-07-21T13:18:42.333Z,98965.28
2018-07-21T13:21:09.710Z,98964.53
2018-07-21T13:23:37.187Z,98963.84
2018-07-21T13:26:04.639Z,98966.06
2018-07-21T13:28:32.094Z,98960.96
2018-07-21T13:30:59.559Z,98967.72
2018-07-21T13:33:27.196Z,98970.50
2018-07-21T13:35:54.674Z,98966.72
2018-07-21T13:38:22.135Z,98958.69
2018-07-21T13:40:49.609Z,98962.09
2018-07-21T13:43:17.025Z,98958.47
2018-07-21T13:45:44.507Z,98961.44
2018-07-21T13:48:12.049Z,98955.38
2018-07-21T13:50:39.418Z,98960.78
2018-07-21T13:53:06.902Z,98952.03
2018-07-21T13:55:34.446Z,98954.25
2018-07-21T13:58:01.909Z,98951.94
2018-07-21T14:00:29.362Z,98952.38
2018-07-21T14:02:56.810Z,98957.00
2018-07-21T14:05:24.263Z,98957.78
2018-07-21T14:07:51.733Z,98949.93
2018-07-21T14:10:19.209Z,98963.54
2018-07-21T14:12:46.646Z,98958.35
2018-07-21T14:15:14.106Z,98950.72
2018-07-21T14:17:41.558Z,98948.38
2018-07-21T14:20:09.111Z,98946.16
2018-07-21T14:22:36.433Z,98946.38
2018-07-21T14:25:03.905Z,98954.03
2018-07-21T14:27:31.360Z,98952.38
2018-07-21T14:29:58.936Z,98951.38
2018-07-21T14:32:26.278Z,98954.56
2018-07-21T14:34:54.059Z,98947.06
2018-07-21T14:37:21.419Z,98955.56
2018-07-21T14:39:48.896Z,98964.20
2018-07-21T14:42:16.338Z,98964.66
2018-07-21T14:44:43.782Z,98962.54
2018-07-21T14:47:11.241Z,98966.55
2018-07-21T14:49:38.803Z,98975.48
2018-07-21T14:52:07.454Z,98977.48
2018-07-21T14:54:35.086Z,98990.42
2018-07-21T14:57:03.359Z,98998.59
2018-07-21T14:59:30.798Z,98996.70
2018-07-21T15:01:58.280Z,98993.73
2018-07-21T15:04:25.736Z,98987.97
2018-07-21T15:06:53.250Z,98992.17
2018-07-21T15:09:20.616Z,98979.01
2018-07-21T15:11:48.338Z,98979.68
2018-07-21T15:14:16.021Z,98978.12
2018-07-21T15:16:43.410Z,98977.47
2018-07-21T15:19:10.854Z,98975.80
2018-07-21T15:21:38.308Z,98983.66
2018-07-21T15:24:05.895Z,98990.30
2018-07-21T15:26:33.402Z,98984.22
2018-07-21T15:29:01.643Z,98993.83
2018-07-21T15:31:29.712Z,98990.52
2018-07-21T15:33:57.454Z,99002.25
2018-07-21T15:36:25.106Z,99001.80
2018-07-21T15:38:55.810Z,99005.20
2018-07-21T15:41:23.610Z,99007.88
2018-07-21T15:46:17.751Z,99001.90
2018-07-21T15:48:45.245Z,99002.01
2018-07-21T15:51:12.718Z,99001.23
2018-07-21T15:53:40.154Z,98994.39
2018-07-21T15:56:08.246Z,98995.05
2018-07-21T15:58:35.706Z,99001.00
2018-07-21T16:01:03.176Z,99001.67
2018-07-21T16:03:30.610Z,99007.42
2018-07-21T16:05:59.197Z,99011.72
2018-07-21T16:08:26.763Z,99013.30
2018-07-21T16:10:56.320Z,99016.92
2018-07-21T16:13:24.052Z,99019.20
2018-07-21T16:15:51.566Z,99018.61
2018-07-21T16:18:19.010Z,99013.96
2018-07-21T16:20:46.496Z,99013.30
2018-07-21T16:23:13.963Z,99010.97
2018-07-21T16:25:41.398Z,99009.86
2018-07-21T16:28:08.866Z,99006.22
2018-07-21T16:30:36.403Z,99005.95
2018-07-21T16:33:03.836Z,99009.08
2018-07-21T16:35:31.214Z,99011.61
2018-07-21T16:37:58.765Z,99005.05
2018-07-21T16:40:26.138Z,99002.08
2018-07-21T16:42:53.601Z,98997.31
2018-07-21T16:45:22.275Z,98994.89
2018-07-21T16:47:50.354Z,98999.30
2018-07-21T16:50:17.848Z,98997.86
2018-07-21T16:52:45.278Z,98992.34
2018-07-21T16:55:12.731Z,98990.15
2018-07-21T16:57:41.161Z,98986.92
2018-07-21T17:00:08.589Z,98986.38
2018-07-21T17:02:36.451Z,98984.38
2018-07-21T17:05:04.546Z,98978.27
2018-07-21T17:07:31.956Z,98974.84
2018-07-21T17:09:59.526Z,98974.52
2018-07-21T17:12:27.086Z,98980.06
2018-07-21T17:14:54.543Z,98977.38
2018-07-21T17:17:22.266Z,98974.50
2018-07-21T17:19:49.662Z,98979.77
2018-07-21T17:22:18.103Z,98977.77
2018-07-21T17:24:45.582Z,98976.44
2018-07-21T17:27:13.105Z,98974.55
2018-07-21T17:29:40.567Z,98968.20
2018-07-21T17:32:08.024Z,98968.20
2018-07-21T17:34:35.445Z,98973.30
2018-07-21T17:37:02.955Z,98965.32
2018-07-21T17:39:30.382Z,98963.27
2018-07-21T17:41:57.807Z,98958.28
2018-07-21T17:44:25.359Z,98962.05
2018-07-21T17:46:52.923Z,98953.00
2018-07-21T17:49:20.358Z,98963.41
2018-07-21T17:51:47.833Z,98961.39
2018-07-21T17:54:15.257Z,98958.74
2018-07-21T17:56:42.750Z,98953.97
2018-07-21T17:59:10.181Z,98958.21
2018-07-21T18:01:37.650Z,98953.12
2018-07-21T18:04:05.097Z,98952.66
2018-07-21T18:06:32.606Z,98959.17
2018-07-21T18:09:00.010Z,98955.09
2018-07-21T18:11:27.485Z,98952.87
2018-07-21T18:13:54.962Z,98957.08
2018-07-21T18:16:22.388Z,98956.84
2018-07-21T18:18:49.964Z,98957.61
2018-07-21T18:21:17.561Z,98960.38
2018-07-21T18:23:44.973Z,98962.02
2018-07-21T18:26:12.835Z,98963.45
2018-07-21T18:28:44.187Z,98962.80
2018-07-21T18:31:14.913Z,98961.69
2018-07-21T18:33:54.631Z,98961.91
2018-07-21T18:36:22.145Z,98963.13
2018-07-21T18:38:55.327Z,98962.56
2018-07-21T18:41:22.781Z,98960.22
2018-07-21T18:43:50.233Z,98960.77
2018-07-21T18:46:17.671Z,98961.00
2018-07-21T18:48:45.199Z,98954.54
2018-07-21T18:51:12.633Z,98959.77
2018-07-21T18:53:40.079Z,98955.13
2018-07-21T18:56:07.526Z,98959.21
2018-07-21T18:58:34.964Z,98954.80
2018-07-21T19:01:02.464Z,98953.72
2018-07-21T19:03:29.935Z,98959.02
2018-07-21T19:05:57.322Z,98958.88
2018-07-21T19:08:26.163Z,98960.97
2018-07-21T19:10:53.719Z,98964.00
2018-07-21T19:13:21.146Z,98966.91
2018-07-21T19:15:48.600Z,98965.61
2018-07-21T19:18:16.136Z,98968.48
2018-07-21T19:20:43.502Z,98974.13
2018-07-21T19:23:10.985Z,98970.73
2018-07-21T19:25:45.961Z,98980.13
2018-07-21T19:28:13.529Z,98979.89
2018-07-21T19:30:41.067Z,98983.45
2018-07-21T19:33:08.607Z,98984.23
2018-07-21T19:35:36.049Z,98996.00
2018-07-21T19:38:03.555Z,98997.31
2018-07-21T19:40:31.020Z,99002.97
2018-07-21T19:42:58.401Z,99011.44
2018-07-21T19:45:25.907Z,99010.00
2018-07-21T19:47:53.489Z,99019.63
2018-07-21T19:50:21.025Z,99024.48
2018-07-21T19:52:48.522Z,99031.58
2018-07-21T19:55:15.992Z,99035.93
2018-07-21T19:57:43.490Z,99030.80
2018-07-21T20:00:11.084Z,99035.89
2018-07-21T20:02:38.464Z,99039.22
2018-07-21T20:05:05.931Z,99039.59
2018-07-21T20:07:33.415Z,99034.25
2018-07-21T20:10:00.876Z,99038.02
2018-07-21T20:12:28.350Z,99037.62
2018-07-21T20:14:55.821Z,99045.11
2018-07-21T20:17:23.385Z,99049.46
2018-07-21T20:19:50.666Z,99051.55
2018-07-21T20:22:18.135Z,99055.20
2018-07-21T20:24:45.605Z,99049.88
2018-07-21T20:27:13.086Z,99056.77
2018-07-21T20:29:40.502Z,99054.41
2018-07-21T20:32:07.981Z,99057.77
2018-07-21T20:34:35.412Z,99052.76
2018-07-21T20:37:02.895Z,99051.29
2018-07-21T20:39:30.382Z,99053.61
2018-07-21T20:41:57.791Z,99046.70
2018-07-21T20:44:26.821Z,99051.53
2018-07-21T20:46:55.136Z,99053.70
2018-07-21T20:49:22.983Z,99049.50
2018-07-21T20:51:50.534Z,99049.23
2018-07-21T20:54:18.010Z,99052.34
2018-07-21T20:56:45.416Z,99050.71
2018-07-21T20:59:12.916Z,99045.85
2018-07-21T21:01:40.407Z,99052.95
2018-07-21T21:04:07.779Z,99046.91
2018-07-21T21:06:35.332Z,99044.14
2018-07-21T21:09:03.035Z,99048.45
2018-07-21T21:11:30.541Z,99048.07
2018-07-21T21:13:58.119Z,99044.03
2018-07-21T21:16:25.806Z,99041.81
2018-07-21T21:18:53.326Z,99046.22
2018-07-21T21:21:20.850Z,99041.52
2018-07-21T21:23:48.936Z,99034.24
2018-07-21T21:26:17.074Z,99037.47
2018-07-21T21:28:46.233Z,99038.09
2018-07-21T21:31:14.047Z,99037.14
2018-07-21T21:33:42.012Z,99031.84
2018-07-21T21:36:10.959Z,99038.56
2018-07-21T21:38:38.885Z,99028.88
2018-07-21T21:41:06.657Z,99035.29
2018-07-21T21:43:34.785Z,99037.73
2018-07-21T21:46:02.943Z,99038.66
2018-07-21T21:48:31.622Z,99038.88
2018-07-21T21:50:59.555Z,99044.28
2018-07-21T21:53:29.667Z,99036.99
2018-07-21T21:55:57.269Z,99041.98
2018-07-21T21:58:25.133Z,99049.38
2018-07-21T22:00:54.579Z,99045.94
2018-07-21T22:03:22.260Z,99046.39
2018-07-21T22:05:50.208Z,99052.35
2018-07-21T22:08:17.901Z,99053.89
2018-07-21T22:10:45.584Z,99058.77
2018-07-21T22:13:13.342Z,99057.48
2018-07-21T22:15:41.115Z,99061.63
2018-07-21T22:18:08.828Z,99062.73
2018-07-21T22:20:36.323Z,99062.58
2018-07-21T22:23:04.177Z,99063.23
2018-07-21T22:25:32.973Z,99071.34
2018-07-21T22:28:01.517Z,99068.84
2018-07-21T22:30:29.607Z,99071.06
2018-07-21T22:32:58.439Z,99073.83
2018-07-21T22:35:26.306Z,99074.36
2018-07-21T22:37:55.206Z,99082.34
2018-07-21T22:40:23.555Z,99081.58
2018-07-21T22:42:51.400Z,99083.11
2018-07-21T22:45:19.679Z,99083.92
2018-07-21T22:47:47.798Z,99080.20
2018-07-21T22:50:16.130Z,99081.08
2018-07-21T22:52:44.170Z,99082.25
2018-07-21T22:55:12.449Z,99085.33
2018-07-21T22:57:40.365Z,99081.90
2018-07-21T23:00:08.026Z,99086.39
2018-07-21T23:02:35.692Z,99089.27
2018-07-21T23:05:03.569Z,99092.70
2018-07-21T23:07:31.328Z,99089.77
2018-07-21T23:09:59.161Z,99092.59
2018-07-21T23:12:27.133Z,99087.06
2018-07-21T23:14:55.002Z,99085.06
2018-07-21T23:17:22.781Z,99089.60
2018-07-21T23:19:50.784Z,99088.29
2018-07-21T23:22:18.550Z,99086.72
2018-07-21T23:24:46.307Z,99084.63
2018-07-21T23:27:14.654Z,99092.94
2018-07-21T23:29:42.679Z,99092.05
2018-07-21T23:32:10.650Z,99095.80
2018-07-21T23:34:38.518Z,99095.70
2018-07-21T23:37:06.299Z,99094.48
2018-07-21T23:39:34.352Z,99097.80
2018-07-21T23:42:02.412Z,99095.58
2018-07-21T23:44:30.583Z,99099.28
2018-07-21T23:46:58.420Z,99097.02
2018-07-21T23:49:26.879Z,99101.55
2018-07-21T23:51:54.712Z,99095.45
2018-07-21T23:54:22.596Z,99093.13
2018-07-21T23:56:50.466Z,99097.31
2018-07-21T23:59:18.294Z,99091.69
